Jeffris, Wisconsin
Current Conditions -  °F | °C
As of 6:35 PM on Sunday 21 Dec 2014 (Local Time) from KRRL Reporting Station
Light Snow Light Snow  
Wind Chill: -4°   Ceiling: 500
Heat Index:   Visibility: 2.5mi
Dew Point:   Wind: 10mph
Humidity: 100%   Direction: 170°S
Pressure: 29.87"   Gusts: 16mph
Location:  45.3595°N, 89.45°W
Report Text: KRRL 220035Z AUTO 17009G14KT 2 1/2SM -SN OVC005 01/01 A2987 RMK AO2 T00050005
Loading
Personal Weather Stations






























Interactive Weather Map New forecast layout! Learn more

10-Day Weather Forecast

Advertisements
Track Severe Weather on mobile